createdAt,value
2018-03-14T00:00:18.219Z,962.2
2018-03-14T00:01:19.866Z,962.2
2018-03-14T00:02:21.522Z,962.2
2018-03-14T00:03:23.178Z,962.2
2018-03-14T00:04:24.819Z,962.2
2018-03-14T00:05:26.454Z,962.1
2018-03-14T00:06:28.108Z,962.1
2018-03-14T00:07:29.765Z,962.2
2018-03-14T00:08:31.406Z,962.2
2018-03-14T00:09:33.049Z,962.2
2018-03-14T00:10:34.738Z,962.2
2018-03-14T00:11:36.394Z,962.2
2018-03-14T00:12:38.050Z,962.2
2018-03-14T00:13:39.700Z,962.2
2018-03-14T00:14:41.346Z,962.2
2018-03-14T00:15:42.999Z,962.2
2018-03-14T00:16:44.653Z,962.3
2018-03-14T00:17:46.295Z,962.2
2018-03-14T00:18:47.940Z,962.2
2018-03-14T00:19:49.577Z,962.2
2018-03-14T00:20:51.221Z,962.2
2018-03-14T00:21:52.878Z,962.2
2018-03-14T00:22:54.519Z,962.2
2018-03-14T00:23:56.178Z,962.3
2018-03-14T00:24:57.825Z,962.2
2018-03-14T00:25:59.477Z,962.2
2018-03-14T00:27:01.119Z,962.2
2018-03-14T00:28:02.770Z,962.3
2018-03-14T00:29:04.420Z,962.3
2018-03-14T00:30:06.068Z,962.3
2018-03-14T00:31:07.722Z,962.3
2018-03-14T00:32:09.368Z,962.3
2018-03-14T00:33:11.027Z,962.3
2018-03-14T00:34:12.671Z,962.3
2018-03-14T00:35:14.320Z,962.3
2018-03-14T00:36:15.971Z,962.3
2018-03-14T00:37:17.622Z,962.4
2018-03-14T00:38:19.273Z,962.3
2018-03-14T00:39:20.914Z,962.3
2018-03-14T00:40:22.569Z,962.3
2018-03-14T00:41:24.212Z,962.3
2018-03-14T00:42:25.865Z,962.3
2018-03-14T00:43:27.524Z,962.4
2018-03-14T00:44:29.164Z,962.3
2018-03-14T00:45:30.819Z,962.3
2018-03-14T00:46:32.456Z,962.4
2018-03-14T00:47:34.102Z,962.4
2018-03-14T00:48:35.748Z,962.4
2018-03-14T00:49:37.404Z,962.4
2018-03-14T00:50:39.013Z,962.4
2018-03-14T00:51:40.786Z,962.4
2018-03-14T00:52:42.433Z,962.4
2018-03-14T00:53:44.075Z,962.4
2018-03-14T00:54:45.723Z,962.4
2018-03-14T00:55:47.381Z,962.3
2018-03-14T00:56:49.020Z,962.3
2018-03-14T00:57:50.666Z,962.4
2018-03-14T00:58:52.314Z,962.4
2018-03-14T00:59:53.961Z,962.4
2018-03-14T01:00:55.609Z,962.4
2018-03-14T01:01:57.258Z,962.4
2018-03-14T01:02:58.905Z,962.4
2018-03-14T01:04:00.558Z,962.5
2018-03-14T01:05:02.205Z,962.4
2018-03-14T01:06:03.854Z,962.4
2018-03-14T01:07:05.503Z,962.5
2018-03-14T01:08:07.151Z,962.4
2018-03-14T01:09:08.802Z,962.4
2018-03-14T01:10:10.451Z,962.4
2018-03-14T01:11:12.096Z,962.4
2018-03-14T01:12:13.746Z,962.5
2018-03-14T01:13:15.393Z,962.4
2018-03-14T01:14:17.040Z,962.4
2018-03-14T01:15:18.683Z,962.5
2018-03-14T01:16:20.336Z,962.5
2018-03-14T01:17:21.983Z,962.4
2018-03-14T01:18:23.629Z,962.5
2018-03-14T01:19:25.289Z,962.5
2018-03-14T01:20:26.937Z,962.4
2018-03-14T01:21:28.582Z,962.4
2018-03-14T01:22:30.231Z,962.4
2018-03-14T01:23:31.886Z,962.5
2018-03-14T01:24:33.536Z,962.4
2018-03-14T01:25:35.182Z,962.4
2018-03-14T01:26:36.874Z,962.4
2018-03-14T01:27:38.513Z,962.4
2018-03-14T01:28:40.178Z,962.4
2018-03-14T01:29:41.833Z,962.4
2018-03-14T01:30:43.488Z,962.4
2018-03-14T01:31:45.135Z,962.4
2018-03-14T01:32:46.780Z,962.4
2018-03-14T01:33:48.423Z,962.4
2018-03-14T01:34:50.076Z,962.4
2018-03-14T01:35:51.722Z,962.4
2018-03-14T01:36:53.366Z,962.4
2018-03-14T01:37:55.018Z,962.4
2018-03-14T01:38:56.664Z,962.5
2018-03-14T01:39:58.382Z,962.4
2018-03-14T01:41:00.026Z,962.4
2018-03-14T01:42:01.680Z,962.4
2018-03-14T01:43:03.324Z,962.4
2018-03-14T01:44:04.976Z,962.4
2018-03-14T01:45:06.626Z,962.4
2018-03-14T01:46:08.267Z,962.4
2018-03-14T01:47:09.919Z,962.4
2018-03-14T01:48:11.560Z,962.3
2018-03-14T01:49:13.214Z,962.4
2018-03-14T01:50:14.864Z,962.4
2018-03-14T01:51:16.534Z,962.3
2018-03-14T01:52:18.180Z,962.4
2018-03-14T01:53:19.828Z,962.3
2018-03-14T01:54:21.472Z,962.3
2018-03-14T01:55:23.119Z,962.4
2018-03-14T01:56:24.770Z,962.4
2018-03-14T01:57:26.420Z,962.4
2018-03-14T01:58:28.073Z,962.4
2018-03-14T01:59:29.717Z,962.4
2018-03-14T02:00:31.365Z,962.4
2018-03-14T02:01:33.966Z,962.4
2018-03-14T02:02:35.613Z,962.4
2018-03-14T02:03:37.263Z,962.4
2018-03-14T02:04:38.906Z,962.4
2018-03-14T02:05:40.555Z,962.4
2018-03-14T02:06:43.155Z,962.4
2018-03-14T02:07:43.804Z,962.4
2018-03-14T02:08:45.451Z,962.5
2018-03-14T02:09:47.097Z,962.4
2018-03-14T02:10:49.345Z,962.5
2018-03-14T02:11:50.995Z,962.5
2018-03-14T02:12:52.635Z,962.4
2018-03-14T02:13:54.282Z,962.5
2018-03-14T02:14:55.934Z,962.5
2018-03-14T02:15:57.578Z,962.5
2018-03-14T02:16:59.225Z,962.5
2018-03-14T02:18:00.875Z,962.5
2018-03-14T02:19:02.527Z,962.5
2018-03-14T02:20:04.176Z,962.5
2018-03-14T02:21:05.815Z,962.5
2018-03-14T02:22:07.458Z,962.5
2018-03-14T02:23:09.105Z,962.4
2018-03-14T02:24:10.764Z,962.5
2018-03-14T02:25:12.407Z,962.5
2018-03-14T02:26:14.061Z,962.5
2018-03-14T02:27:15.704Z,962.5
2018-03-14T02:28:17.353Z,962.4
2018-03-14T02:29:18.998Z,962.5
2018-03-14T02:30:20.647Z,962.5
2018-03-14T02:31:22.292Z,962.5
2018-03-14T02:32:23.940Z,962.5
2018-03-14T02:33:25.608Z,962.5
2018-03-14T02:34:27.258Z,962.5
2018-03-14T02:35:28.902Z,962.5
2018-03-14T02:36:30.554Z,962.5
2018-03-14T02:37:32.165Z,962.5
2018-03-14T02:38:33.807Z,962.5
2018-03-14T02:39:35.449Z,962.5
2018-03-14T02:40:37.096Z,962.5
2018-03-14T02:41:38.749Z,962.6
2018-03-14T02:42:40.384Z,962.5
2018-03-14T02:43:42.034Z,962.5
2018-03-14T02:44:43.685Z,962.6
2018-03-14T02:45:45.347Z,962.6
2018-03-14T02:46:46.999Z,962.6
2018-03-14T02:47:48.648Z,962.6
2018-03-14T02:48:50.300Z,962.6
2018-03-14T02:49:51.944Z,962.6
2018-03-14T02:50:53.596Z,962.6
2018-03-14T02:51:55.237Z,962.5
2018-03-14T02:52:56.896Z,962.6
2018-03-14T02:53:58.536Z,962.5
2018-03-14T02:55:00.192Z,962.5
2018-03-14T03:01:34.966Z,962.5
2018-03-14T03:02:36.612Z,962.5
2018-03-14T03:03:39.027Z,962.5
2018-03-14T03:04:40.676Z,962.6
2018-03-14T03:05:42.316Z,962.5
2018-03-14T03:06:43.964Z,962.6
2018-03-14T03:07:45.630Z,962.6
2018-03-14T03:08:48.184Z,962.6
2018-03-14T03:09:48.885Z,962.5
2018-03-14T03:10:50.535Z,962.6
2018-03-14T03:11:52.196Z,962.5
2018-03-14T03:12:53.844Z,962.5
2018-03-14T03:13:55.496Z,962.5
2018-03-14T03:14:57.143Z,962.6
2018-03-14T03:15:58.790Z,962.6
2018-03-14T03:17:00.443Z,962.6
2018-03-14T03:18:02.097Z,962.6
2018-03-14T03:19:03.742Z,962.5
2018-03-14T03:20:05.393Z,962.5
2018-03-14T03:21:07.054Z,962.5
2018-03-14T03:22:08.715Z,962.5
2018-03-14T03:23:10.369Z,962.6
2018-03-14T03:24:12.019Z,962.6
2018-03-14T03:25:13.661Z,962.6
2018-03-14T03:26:15.312Z,962.6
2018-03-14T03:27:16.957Z,962.6
2018-03-14T03:28:18.614Z,962.6
2018-03-14T03:29:20.262Z,962.6
2018-03-14T03:30:21.925Z,962.6
2018-03-14T03:31:23.579Z,962.6
2018-03-14T03:32:25.221Z,962.6
2018-03-14T03:33:26.878Z,962.6
2018-03-14T03:34:28.521Z,962.6
2018-03-14T03:35:30.224Z,962.6
2018-03-14T03:36:31.872Z,962.6
2018-03-14T03:37:33.521Z,962.6
2018-03-14T03:38:35.190Z,962.6
2018-03-14T03:39:36.833Z,962.6
2018-03-14T03:40:38.485Z,962.6
2018-03-14T03:41:40.141Z,962.6
2018-03-14T03:42:41.788Z,962.6
2018-03-14T03:43:43.441Z,962.6
2018-03-14T03:44:45.093Z,962.6
2018-03-14T03:45:46.747Z,962.6
2018-03-14T03:46:48.405Z,962.5
2018-03-14T03:47:50.053Z,962.5
2018-03-14T03:48:51.711Z,962.5
2018-03-14T03:49:53.360Z,962.5
2018-03-14T03:50:55.007Z,962.6
2018-03-14T03:51:56.665Z,962.6
2018-03-14T03:52:58.309Z,962.6
2018-03-14T03:53:59.960Z,962.6
2018-03-14T03:55:01.604Z,962.6
2018-03-14T03:56:03.252Z,962.6
2018-03-14T03:57:04.919Z,962.7
2018-03-14T03:58:06.564Z,962.7
2018-03-14T03:59:08.224Z,962.7
2018-03-14T04:00:09.881Z,962.7
2018-03-14T04:01:11.537Z,962.7
2018-03-14T04:02:13.205Z,962.7
2018-03-14T04:03:14.860Z,962.7
2018-03-14T04:04:16.521Z,962.7
2018-03-14T04:05:18.167Z,962.7
2018-03-14T04:06:19.871Z,962.6
2018-03-14T04:07:21.508Z,962.7
2018-03-14T04:08:23.168Z,962.7
2018-03-14T04:09:24.885Z,962.7
2018-03-14T04:10:26.552Z,962.7
2018-03-14T04:11:28.210Z,962.7
2018-03-14T04:12:29.869Z,962.7
2018-03-14T04:13:31.525Z,962.7
2018-03-14T04:14:33.193Z,962.7
2018-03-14T04:15:34.828Z,962.7
2018-03-14T04:16:36.466Z,962.7
2018-03-14T04:17:38.136Z,962.7
2018-03-14T04:18:39.789Z,962.7
2018-03-14T04:19:41.442Z,962.7
2018-03-14T04:20:43.104Z,962.7
2018-03-14T04:21:44.811Z,962.7
2018-03-14T04:22:46.463Z,962.7
2018-03-14T04:23:48.978Z,962.7
2018-03-14T04:24:50.631Z,962.7
2018-03-14T04:25:52.290Z,962.7
2018-03-14T04:26:53.948Z,962.8
2018-03-14T04:27:55.608Z,962.7
2018-03-14T04:28:57.251Z,962.8
2018-03-14T04:29:58.909Z,962.7
2018-03-14T04:31:00.566Z,962.7
2018-03-14T04:32:02.218Z,962.7
2018-03-14T04:33:03.889Z,962.7
2018-03-14T04:34:05.537Z,962.7
2018-03-14T04:35:07.187Z,962.7
2018-03-14T04:36:08.844Z,962.7
2018-03-14T04:37:10.488Z,962.7
2018-03-14T04:38:12.163Z,962.7
2018-03-14T04:39:13.815Z,962.7
2018-03-14T04:40:15.542Z,962.7
2018-03-14T04:41:17.203Z,962.7
2018-03-14T04:42:18.851Z,962.7
2018-03-14T04:43:20.508Z,962.7
2018-03-14T04:44:22.166Z,962.7
2018-03-14T04:45:23.820Z,962.8
2018-03-14T04:46:25.477Z,962.7
2018-03-14T04:47:27.131Z,962.8
2018-03-14T04:48:28.788Z,962.7
2018-03-14T04:49:30.441Z,962.8
2018-03-14T04:50:32.090Z,962.8
2018-03-14T04:51:34.509Z,962.8
2018-03-14T04:52:36.164Z,962.7
2018-03-14T04:53:37.836Z,962.8
2018-03-14T04:54:39.494Z,962.7
2018-03-14T04:55:41.155Z,962.8
2018-03-14T04:56:42.816Z,962.8
2018-03-14T04:57:44.465Z,962.8
2018-03-14T04:58:46.125Z,962.8
2018-03-14T04:59:47.805Z,962.7
2018-03-14T05:00:49.451Z,962.7
2018-03-14T05:01:51.113Z,962.7
2018-03-14T05:02:52.763Z,962.7
2018-03-14T05:03:54.421Z,962.8
2018-03-14T05:04:56.077Z,962.7
2018-03-14T05:05:57.729Z,962.7
2018-03-14T05:06:59.386Z,962.7
2018-03-14T05:08:01.040Z,962.7
2018-03-14T05:09:02.704Z,962.7
2018-03-14T05:10:04.370Z,962.7
2018-03-14T05:11:06.029Z,962.7
2018-03-14T05:12:07.690Z,962.7
2018-03-14T05:13:09.349Z,962.7
2018-03-14T05:14:11.002Z,962.7
2018-03-14T05:15:13.470Z,962.8
2018-03-14T05:16:15.122Z,962.7
2018-03-14T05:17:16.778Z,962.7
2018-03-14T05:18:18.435Z,962.7
2018-03-14T05:19:20.090Z,962.7
2018-03-14T05:20:21.736Z,962.7
2018-03-14T05:21:23.385Z,962.7
2018-03-14T05:22:25.075Z,962.7
2018-03-14T05:23:26.728Z,962.7
2018-03-14T05:24:28.373Z,962.8
2018-03-14T05:25:30.027Z,962.7
2018-03-14T05:26:31.713Z,962.8
2018-03-14T05:27:33.364Z,962.8
2018-03-14T05:28:35.017Z,962.8
2018-03-14T05:29:36.675Z,962.7
2018-03-14T05:30:38.323Z,962.8
2018-03-14T05:31:39.975Z,962.8
2018-03-14T05:32:41.638Z,962.8
2018-03-14T05:33:43.284Z,962.8
2018-03-14T05:34:44.945Z,962.8
2018-03-14T05:35:46.604Z,962.8
2018-03-14T05:36:48.259Z,962.8
2018-03-14T05:37:49.967Z,962.8
2018-03-14T05:38:51.578Z,962.8
2018-03-14T05:39:53.249Z,962.9
2018-03-14T05:40:54.910Z,962.8
2018-03-14T05:41:56.560Z,962.8
2018-03-14T05:42:58.214Z,962.8
2018-03-14T05:43:59.863Z,962.8
2018-03-14T05:45:01.565Z,962.8
2018-03-14T05:46:03.219Z,962.8
2018-03-14T05:47:04.871Z,962.8
2018-03-14T05:48:06.517Z,962.8
2018-03-14T05:49:08.170Z,962.9
2018-03-14T05:50:09.828Z,962.8
2018-03-14T05:51:11.509Z,962.8
2018-03-14T05:52:13.157Z,962.8
2018-03-14T05:53:14.813Z,962.8
2018-03-14T05:54:16.481Z,962.9
2018-03-14T05:55:18.124Z,962.8
2018-03-14T05:56:19.786Z,962.9
2018-03-14T05:57:21.422Z,962.9
2018-03-14T05:58:23.075Z,962.9
2018-03-14T05:59:24.727Z,962.9
2018-03-14T06:00:26.409Z,962.9
2018-03-14T06:01:28.056Z,963.0
2018-03-14T06:02:29.715Z,963.0
2018-03-14T06:03:31.372Z,963.0
2018-03-14T06:04:33.018Z,963.0
2018-03-14T06:05:34.676Z,963.0
2018-03-14T06:06:36.396Z,963.0
2018-03-14T06:07:38.002Z,963.0
2018-03-14T06:08:39.665Z,963.0
2018-03-14T06:09:41.318Z,963.0
2018-03-14T06:10:42.992Z,963.0
2018-03-14T06:11:44.645Z,962.9
2018-03-14T06:12:46.297Z,963.0
2018-03-14T06:13:48.738Z,962.9
2018-03-14T06:14:50.387Z,962.9
2018-03-14T06:15:52.054Z,963.0
2018-03-14T06:16:53.787Z,963.0
2018-03-14T06:17:55.434Z,963.0
2018-03-14T06:18:57.095Z,963.0
2018-03-14T06:19:58.752Z,963.0
2018-03-14T06:21:00.398Z,963.0
2018-03-14T06:22:02.069Z,962.9
2018-03-14T06:23:04.057Z,963.0
2018-03-14T06:24:05.785Z,963.0
2018-03-14T06:25:07.433Z,963.0
2018-03-14T06:26:09.132Z,963.0
2018-03-14T06:27:10.744Z,963.0
2018-03-14T06:28:12.398Z,963.0
2018-03-14T06:29:14.050Z,963.0
2018-03-14T06:30:15.714Z,963.0
2018-03-14T06:31:17.367Z,963.0
2018-03-14T06:32:19.013Z,963.0
2018-03-14T06:33:20.679Z,963.1
2018-03-14T06:34:22.333Z,963.1
2018-03-14T06:35:23.980Z,963.1
2018-03-14T06:36:25.635Z,963.1
2018-03-14T06:37:27.297Z,963.1
2018-03-14T06:38:28.958Z,963.1
2018-03-14T06:39:30.615Z,963.0
2018-03-14T06:40:32.280Z,963.1
2018-03-14T06:41:33.926Z,963.0
2018-03-14T06:42:35.591Z,963.1
2018-03-14T06:43:37.251Z,963.1
2018-03-14T06:44:38.903Z,963.1
2018-03-14T06:45:40.558Z,963.1
2018-03-14T06:46:42.209Z,963.1
2018-03-14T06:47:43.862Z,963.2
2018-03-14T06:48:45.525Z,963.2
2018-03-14T06:49:47.200Z,963.2
2018-03-14T06:50:48.858Z,963.2
2018-03-14T06:51:50.527Z,963.2
2018-03-14T06:52:52.182Z,963.2
2018-03-14T06:53:53.828Z,963.2
2018-03-14T06:54:55.492Z,963.2
2018-03-14T07:01:05.812Z,963.3
2018-03-14T07:02:07.478Z,963.3
2018-03-14T07:03:09.108Z,963.3
2018-03-14T07:04:10.770Z,963.3
2018-03-14T07:05:12.414Z,963.4
2018-03-14T07:06:14.071Z,963.3
2018-03-14T07:07:15.726Z,963.3
2018-03-14T07:08:17.384Z,963.3
2018-03-14T07:09:19.033Z,963.3
2018-03-14T07:10:20.696Z,963.3
2018-03-14T07:11:22.355Z,963.3
2018-03-14T07:12:24.021Z,963.3
2018-03-14T07:13:25.672Z,963.3
2018-03-14T07:14:27.333Z,963.3
2018-03-14T07:15:28.993Z,963.3
2018-03-14T07:16:30.642Z,963.3
2018-03-14T07:17:32.301Z,963.3
2018-03-14T07:18:33.948Z,963.3
2018-03-14T07:19:35.606Z,963.3
2018-03-14T07:20:37.254Z,963.3
2018-03-14T07:21:38.916Z,963.3
2018-03-14T07:22:40.583Z,963.3
2018-03-14T07:23:42.225Z,963.4
2018-03-14T07:24:43.872Z,963.4
2018-03-14T07:25:45.530Z,963.3
2018-03-14T07:26:47.192Z,963.4
2018-03-14T07:27:48.845Z,963.4
2018-03-14T07:28:50.506Z,963.4
2018-03-14T07:29:52.165Z,963.4
2018-03-14T07:30:53.813Z,963.5
2018-03-14T07:31:55.474Z,963.5
2018-03-14T07:32:57.141Z,963.5
2018-03-14T07:33:58.796Z,963.5
2018-03-14T07:35:00.451Z,963.5
2018-03-14T07:36:02.102Z,963.5
2018-03-14T07:37:04.531Z,963.5
2018-03-14T07:38:06.183Z,963.6
2018-03-14T07:39:07.838Z,963.5
2018-03-14T07:40:09.491Z,963.5
2018-03-14T07:41:11.147Z,963.6
2018-03-14T07:42:12.799Z,963.6
2018-03-14T07:43:14.454Z,963.6
2018-03-14T07:44:16.114Z,963.6
2018-03-14T07:45:17.758Z,963.6
2018-03-14T07:46:19.418Z,963.6
2018-03-14T07:47:21.082Z,963.6
2018-03-14T07:48:22.742Z,963.6
2018-03-14T07:49:24.396Z,963.6
2018-03-14T07:50:26.064Z,963.6
2018-03-14T07:51:27.732Z,963.6
2018-03-14T07:52:29.397Z,963.6
2018-03-14T07:53:31.062Z,963.7
2018-03-14T07:54:32.749Z,963.7
2018-03-14T07:55:34.403Z,963.7
2018-03-14T07:56:36.067Z,963.7
2018-03-14T07:57:37.732Z,963.8
2018-03-14T07:58:39.390Z,963.7
2018-03-14T07:59:41.043Z,963.7
2018-03-14T08:00:43.252Z,963.7
2018-03-14T08:01:44.917Z,963.7
2018-03-14T08:02:46.567Z,963.8
2018-03-14T08:03:48.227Z,963.7
2018-03-14T08:04:49.887Z,963.7
2018-03-14T08:05:51.550Z,963.7
2018-03-14T08:06:53.208Z,963.7
2018-03-14T08:07:54.855Z,963.7
2018-03-14T08:08:56.524Z,963.7
2018-03-14T08:09:59.144Z,963.7
2018-03-14T08:11:00.791Z,963.6
2018-03-14T08:12:02.456Z,963.6
2018-03-14T08:13:04.120Z,963.6
2018-03-14T08:14:05.795Z,963.6
2018-03-14T08:15:07.445Z,963.6
2018-03-14T08:16:09.092Z,963.7
2018-03-14T08:17:10.751Z,963.7
2018-03-14T08:18:12.410Z,963.7
2018-03-14T08:19:14.076Z,963.7
2018-03-14T08:20:17.841Z,963.7
2018-03-14T08:21:19.476Z,963.7
2018-03-14T08:22:21.076Z,963.8
2018-03-14T08:23:22.745Z,963.7
2018-03-14T08:24:25.734Z,963.7
2018-03-14T08:25:27.365Z,963.7
2018-03-14T08:26:29.024Z,963.7
2018-03-14T08:27:30.697Z,963.7
2018-03-14T08:28:32.364Z,963.7
2018-03-14T08:29:34.023Z,963.7
2018-03-14T08:30:35.694Z,963.7
2018-03-14T08:31:37.351Z,963.7
2018-03-14T08:32:39.011Z,963.8
2018-03-14T08:33:40.698Z,963.7
2018-03-14T08:34:42.354Z,963.8
2018-03-14T08:35:44.015Z,963.8
2018-03-14T08:36:45.676Z,963.8
2018-03-14T08:37:47.342Z,963.8
2018-03-14T08:38:49.011Z,963.9
2018-03-14T08:39:50.676Z,963.8
2018-03-14T08:40:52.336Z,963.9
2018-03-14T08:41:54.001Z,963.9
2018-03-14T08:42:55.652Z,963.9
2018-03-14T08:43:57.313Z,963.9
2018-03-14T08:44:58.984Z,963.9
2018-03-14T08:46:00.643Z,964.0
2018-03-14T08:47:02.305Z,963.9
2018-03-14T08:48:03.973Z,963.9
2018-03-14T08:49:05.626Z,963.9
2018-03-14T08:50:07.280Z,963.9
2018-03-14T08:51:08.938Z,964.0
2018-03-14T08:52:10.603Z,964.0
2018-03-14T08:53:12.259Z,964.0
2018-03-14T08:54:13.923Z,964.0
2018-03-14T08:55:15.597Z,963.9
2018-03-14T08:56:18.614Z,963.9
2018-03-14T08:57:20.282Z,963.9
2018-03-14T08:58:21.935Z,963.9
2018-03-14T08:59:23.598Z,963.9
2018-03-14T09:00:25.258Z,963.9
2018-03-14T09:01:26.954Z,963.9
2018-03-14T09:02:28.634Z,963.9
2018-03-14T09:03:30.295Z,963.9
2018-03-14T09:04:31.958Z,963.9
2018-03-14T09:05:33.626Z,963.9
2018-03-14T09:06:35.291Z,963.9
2018-03-14T09:07:36.945Z,963.9
2018-03-14T09:08:38.615Z,963.9
2018-03-14T09:09:40.272Z,963.8
2018-03-14T09:10:41.945Z,963.9
2018-03-14T09:11:43.607Z,963.9
2018-03-14T09:12:45.293Z,963.9
2018-03-14T09:13:46.950Z,963.9
2018-03-14T09:14:48.615Z,963.9
2018-03-14T09:15:50.276Z,963.9
2018-03-14T09:16:51.955Z,963.9
2018-03-14T09:17:53.628Z,963.9
2018-03-14T09:18:55.290Z,963.9
2018-03-14T09:19:56.960Z,963.9
2018-03-14T09:20:58.622Z,963.9
2018-03-14T09:22:00.283Z,963.9
2018-03-14T09:23:01.945Z,963.9
2018-03-14T09:24:03.606Z,963.8
2018-03-14T09:25:05.274Z,963.9
2018-03-14T09:26:06.919Z,963.9
2018-03-14T09:27:08.590Z,963.8
2018-03-14T09:28:10.279Z,963.9
2018-03-14T09:29:11.962Z,963.9
2018-03-14T09:30:13.634Z,963.9
2018-03-14T09:31:15.289Z,963.8
2018-03-14T09:32:16.958Z,963.9
2018-03-14T09:33:18.645Z,963.9
2018-03-14T09:34:20.282Z,963.9
2018-03-14T09:35:21.949Z,963.9
2018-03-14T09:36:23.610Z,963.9
2018-03-14T09:37:25.279Z,964.0
2018-03-14T09:38:26.958Z,963.9
2018-03-14T09:39:28.618Z,964.0
2018-03-14T09:40:30.285Z,964.0
2018-03-14T09:41:31.939Z,963.9
2018-03-14T09:42:33.603Z,963.9
2018-03-14T09:43:35.269Z,963.9
2018-03-14T09:44:36.934Z,963.9
2018-03-14T09:45:38.594Z,963.9
2018-03-14T09:46:40.274Z,963.8
2018-03-14T09:47:41.967Z,963.8
2018-03-14T09:48:43.638Z,963.8
2018-03-14T09:49:45.302Z,963.8
2018-03-14T09:50:46.959Z,963.8
2018-03-14T09:51:48.623Z,963.8
2018-03-14T09:52:50.302Z,963.8
2018-03-14T09:53:51.961Z,963.9
2018-03-14T09:54:53.625Z,963.9
2018-03-14T09:55:55.272Z,963.9
2018-03-14T09:56:56.940Z,963.9
2018-03-14T09:57:58.595Z,963.9
2018-03-14T09:59:00.260Z,964.0
2018-03-14T10:00:01.931Z,964.0
2018-03-14T10:01:03.584Z,964.0
2018-03-14T10:02:05.253Z,964.0
2018-03-14T10:03:06.915Z,964.0
2018-03-14T10:04:08.579Z,964.0
2018-03-14T10:05:10.253Z,963.9
2018-03-14T10:06:11.907Z,964.0
2018-03-14T10:07:13.569Z,964.0
2018-03-14T10:08:15.240Z,964.1
2018-03-14T10:09:16.912Z,964.1
2018-03-14T10:10:18.577Z,964.1
2018-03-14T10:11:20.244Z,964.0
2018-03-14T10:12:21.915Z,964.0
2018-03-14T10:13:23.583Z,964.1
2018-03-14T10:14:25.254Z,964.1
2018-03-14T10:15:26.916Z,964.2
2018-03-14T10:16:28.576Z,964.1
2018-03-14T10:17:30.234Z,964.0
2018-03-14T10:18:31.895Z,964.3
2018-03-14T10:19:33.566Z,964.3
2018-03-14T10:20:35.239Z,964.1
2018-03-14T10:21:36.904Z,964.0
2018-03-14T10:22:38.591Z,964.1
2018-03-14T10:23:40.260Z,964.1
2018-03-14T10:24:41.926Z,964.0
2018-03-14T10:25:43.634Z,964.2
2018-03-14T10:26:45.223Z,964.2
2018-03-14T10:27:46.888Z,964.2
2018-03-14T10:28:48.568Z,964.1
2018-03-14T10:29:50.242Z,964.0
2018-03-14T10:30:51.916Z,964.0
2018-03-14T10:31:53.595Z,964.0
2018-03-14T10:32:55.301Z,964.0
2018-03-14T10:33:56.972Z,964.0
2018-03-14T10:34:58.639Z,964.0
2018-03-14T10:36:00.306Z,964.0
2018-03-14T10:37:01.974Z,964.0
2018-03-14T10:38:03.649Z,964.1
2018-03-14T10:39:05.313Z,964.1
2018-03-14T10:40:06.988Z,964.1
2018-03-14T10:41:08.695Z,964.1
2018-03-14T10:42:10.318Z,964.1
2018-03-14T10:43:12.084Z,964.1
2018-03-14T10:44:13.781Z,964.0
2018-03-14T10:45:15.453Z,964.0
2018-03-14T10:46:17.108Z,964.0
2018-03-14T10:47:18.766Z,964.0
2018-03-14T10:48:20.444Z,963.9
2018-03-14T10:49:22.114Z,963.9
2018-03-14T10:50:23.792Z,964.0
2018-03-14T10:51:25.468Z,963.9
2018-03-14T10:52:27.134Z,963.9
2018-03-14T10:53:28.809Z,964.0
2018-03-14T10:54:32.037Z,964.2
2018-03-14T10:55:33.708Z,964.3
2018-03-14T11:01:55.500Z,964.2
2018-03-14T11:02:57.160Z,964.1
2018-03-14T11:03:58.816Z,964.1
2018-03-14T11:05:00.484Z,964.1
2018-03-14T11:06:02.156Z,964.1
2018-03-14T11:07:03.819Z,964.1
2018-03-14T11:08:05.501Z,964.1
2018-03-14T11:09:07.179Z,964.1
2018-03-14T11:10:08.839Z,964.0
2018-03-14T11:11:10.496Z,964.0
2018-03-14T11:12:12.169Z,964.0
2018-03-14T11:13:13.840Z,964.1
2018-03-14T11:14:15.522Z,964.0
2018-03-14T11:15:17.194Z,964.1
2018-03-14T11:16:18.859Z,964.0
2018-03-14T11:17:20.551Z,964.0
2018-03-14T11:18:22.217Z,964.1
2018-03-14T11:19:23.895Z,964.3
2018-03-14T11:20:25.574Z,964.4
2018-03-14T11:21:27.279Z,964.3
2018-03-14T11:22:28.911Z,964.4
2018-03-14T11:23:30.600Z,964.5
2018-03-14T11:24:32.265Z,964.4
2018-03-14T11:25:33.973Z,964.3
2018-03-14T11:26:35.606Z,964.4
2018-03-14T11:27:37.274Z,964.3
2018-03-14T11:28:38.937Z,964.2
2018-03-14T11:29:40.611Z,964.1
2018-03-14T11:30:42.290Z,964.2
2018-03-14T11:31:43.959Z,964.3
2018-03-14T11:32:45.626Z,964.1
2018-03-14T11:33:47.354Z,964.2
2018-03-14T11:34:49.020Z,964.2
2018-03-14T11:35:50.674Z,964.1
2018-03-14T11:36:52.454Z,964.2
2018-03-14T11:37:54.142Z,964.2
2018-03-14T11:38:55.794Z,964.2
2018-03-14T11:39:57.457Z,964.2
2018-03-14T11:40:59.116Z,964.2
2018-03-14T11:42:00.798Z,964.2
2018-03-14T11:43:02.470Z,964.2
2018-03-14T11:44:04.157Z,964.1
2018-03-14T11:45:05.828Z,964.1
2018-03-14T11:46:07.506Z,964.0
2018-03-14T11:47:09.172Z,964.0
2018-03-14T11:48:10.829Z,964.0
2018-03-14T11:49:12.492Z,963.9
2018-03-14T11:50:14.159Z,964.0
2018-03-14T11:51:15.826Z,964.0
2018-03-14T11:52:17.488Z,964.0
2018-03-14T11:53:19.156Z,964.1
2018-03-14T11:54:20.826Z,964.1
2018-03-14T11:55:22.500Z,964.1
2018-03-14T11:56:24.161Z,964.2
2018-03-14T11:57:25.827Z,964.0
2018-03-14T11:58:27.497Z,964.0
2018-03-14T11:59:29.157Z,963.9
2018-03-14T12:00:30.818Z,964.0
2018-03-14T12:01:32.488Z,964.0
2018-03-14T12:02:34.161Z,963.9
2018-03-14T12:03:35.828Z,963.9
2018-03-14T12:04:37.491Z,964.0
2018-03-14T12:05:39.160Z,963.9
2018-03-14T12:06:40.825Z,963.9
2018-03-14T12:07:42.486Z,963.8
2018-03-14T12:08:44.162Z,964.0
2018-03-14T12:09:45.828Z,964.0
2018-03-14T12:10:47.486Z,963.9
2018-03-14T12:11:49.165Z,963.9
2018-03-14T12:12:50.842Z,963.9
2018-03-14T12:13:52.515Z,963.9
2018-03-14T12:14:54.186Z,963.9
2018-03-14T12:15:55.843Z,964.0
2018-03-14T12:16:57.513Z,963.9
2018-03-14T12:17:59.189Z,963.9
2018-03-14T12:19:00.862Z,963.8
2018-03-14T12:20:02.533Z,963.8
2018-03-14T12:21:04.225Z,963.8
2018-03-14T12:22:05.905Z,964.0
2018-03-14T12:23:07.604Z,963.9
2018-03-14T12:24:09.271Z,964.0
2018-03-14T12:25:10.939Z,964.0
2018-03-14T12:26:12.607Z,964.0
2018-03-14T12:27:14.272Z,964.0
2018-03-14T12:28:15.948Z,963.8
2018-03-14T12:29:17.601Z,963.8
2018-03-14T12:30:19.271Z,963.7
2018-03-14T12:31:20.946Z,963.7
2018-03-14T12:32:22.622Z,963.6
2018-03-14T12:33:24.289Z,963.6
2018-03-14T12:34:25.953Z,963.6
2018-03-14T12:35:27.627Z,963.5
2018-03-14T12:36:29.286Z,963.5
2018-03-14T12:37:30.956Z,963.5
2018-03-14T12:38:32.653Z,963.4
2018-03-14T12:39:34.295Z,963.4
2018-03-14T12:40:35.971Z,963.3
2018-03-14T12:41:37.637Z,963.4
2018-03-14T12:42:39.305Z,963.3
2018-03-14T12:43:40.973Z,963.3
2018-03-14T12:44:42.638Z,963.3
2018-03-14T12:45:44.305Z,963.2
2018-03-14T12:46:45.964Z,963.3
2018-03-14T12:47:47.646Z,963.2
2018-03-14T12:48:49.322Z,963.2
2018-03-14T12:49:51.008Z,963.2
2018-03-14T12:50:52.695Z,963.1
2018-03-14T12:51:54.364Z,963.1
2018-03-14T12:52:56.029Z,963.1
2018-03-14T12:53:57.708Z,963.1
2018-03-14T12:54:59.372Z,963.1
2018-03-14T12:56:01.052Z,963.1
2018-03-14T12:57:02.720Z,963.1
2018-03-14T12:58:04.391Z,963.1
2018-03-14T12:59:06.058Z,963.1
2018-03-14T13:00:07.721Z,963.0
2018-03-14T13:01:09.391Z,963.0
2018-03-14T13:02:11.064Z,963.0
2018-03-14T13:03:12.735Z,963.1
2018-03-14T13:04:14.389Z,963.1
2018-03-14T13:05:16.131Z,963.1
2018-03-14T13:06:17.805Z,963.1
2018-03-14T13:07:19.470Z,963.1
2018-03-14T13:08:21.183Z,963.1
2018-03-14T13:09:22.849Z,963.1
2018-03-14T13:10:24.513Z,963.1
2018-03-14T13:11:26.277Z,963.0
2018-03-14T13:12:27.898Z,963.0
2018-03-14T13:13:29.560Z,962.9
2018-03-14T13:14:31.314Z,962.9
2018-03-14T13:15:32.953Z,962.9
2018-03-14T13:16:34.624Z,962.8
2018-03-14T13:17:36.299Z,962.8
2018-03-14T13:18:37.967Z,962.9
2018-03-14T13:19:39.650Z,962.9
2018-03-14T13:20:41.312Z,962.9
2018-03-14T13:21:42.965Z,962.9
2018-03-14T13:22:44.647Z,962.9
2018-03-14T13:23:46.309Z,963.0
2018-03-14T13:24:48.002Z,963.0
2018-03-14T13:25:49.667Z,963.0
2018-03-14T13:26:51.324Z,962.9
2018-03-14T13:27:53.016Z,962.9
2018-03-14T13:28:54.690Z,963.1
2018-03-14T13:29:56.333Z,963.1